createdAt,value
2023-12-12T00:00:06.978Z,100685.84
2023-12-12T00:02:33.426Z,100688.59
2023-12-12T00:05:00.077Z,100691.34
2023-12-12T00:07:26.590Z,100695.28
2023-12-12T00:09:53.124Z,100693.72
2023-12-12T00:12:19.649Z,100698.44
2023-12-12T00:14:46.116Z,100698.44
2023-12-12T00:17:12.700Z,100694.91
2023-12-12T00:19:43.840Z,100702.81
2023-12-12T00:22:10.835Z,100700.06
2023-12-12T00:24:37.363Z,100705.94
2023-12-12T00:27:04.191Z,100701.63
2023-12-12T00:29:31.372Z,100698.88
2023-12-12T00:31:57.857Z,100705.56
2023-12-12T00:34:24.359Z,100697.72
2023-12-12T00:36:50.847Z,100704.00
2023-12-12T00:39:17.477Z,100712.25
2023-12-12T00:41:43.969Z,100704.41
2023-12-12T00:44:11.087Z,100704.81
2023-12-12T00:46:37.724Z,100714.63
2023-12-12T00:49:04.422Z,100715.03
2023-12-12T00:51:31.038Z,100717.00
2023-12-12T00:53:57.541Z,100715.44
2023-12-12T00:56:24.030Z,100713.84
2023-12-12T00:58:50.618Z,100719.34
2023-12-12T01:01:17.512Z,100710.34
2023-12-12T01:03:44.138Z,100713.84
2023-12-12T01:06:25.497Z,100715.88
2023-12-12T01:08:53.616Z,100718.22
2023-12-12T01:11:20.388Z,100714.31
2023-12-12T01:13:49.207Z,100711.56
2023-12-12T01:16:15.756Z,100700.56
2023-12-12T01:18:42.336Z,100706.84
2023-12-12T01:21:08.924Z,100698.22
2023-12-12T01:23:54.662Z,100699.41
2023-12-12T01:26:23.477Z,100705.69
2023-12-12T01:28:51.260Z,100697.81
2023-12-12T01:31:18.768Z,100695.88
2023-12-12T01:33:45.999Z,100700.97
2023-12-12T01:36:12.565Z,100703.72
2023-12-12T01:38:39.084Z,100702.59
2023-12-12T01:41:05.941Z,100693.16
2023-12-12T01:43:33.811Z,100700.63
2023-12-12T01:46:01.982Z,100690.03
2023-12-12T01:48:29.993Z,100686.50
2023-12-12T01:50:57.747Z,100683.75
2023-12-12T01:53:47.155Z,100683.38
2023-12-12T01:56:15.621Z,100682.19
2023-12-12T01:58:45.151Z,100685.34
2023-12-12T02:01:12.834Z,100676.31
2023-12-12T02:03:43.010Z,100673.19
2023-12-12T02:06:12.642Z,100669.25
2023-12-12T02:08:39.520Z,100669.66
2023-12-12T02:11:06.241Z,100675.16
2023-12-12T02:13:32.780Z,100672.03
2023-12-12T02:15:59.388Z,100668.50
2023-12-12T02:18:26.105Z,100667.72
2023-12-12T02:20:52.650Z,100673.22
2023-12-12T02:23:19.138Z,100675.19
2023-12-12T02:25:45.663Z,100672.44
2023-12-12T02:28:13.810Z,100675.59
2023-12-12T02:30:40.454Z,100683.03
2023-12-12T02:33:07.106Z,100675.94
2023-12-12T02:35:33.941Z,100670.44
2023-12-12T02:38:00.458Z,100673.59
2023-12-12T02:40:26.985Z,100683.41
2023-12-12T02:42:53.907Z,100676.75
2023-12-12T02:45:20.549Z,100676.00
2023-12-12T02:47:47.401Z,100680.69
2023-12-12T02:50:14.127Z,100683.44
2023-12-12T02:52:40.682Z,100677.97
2023-12-12T02:55:07.718Z,100675.63
2023-12-12T02:57:34.512Z,100674.84
2023-12-12T03:00:01.298Z,100672.09
2023-12-12T03:02:27.803Z,100667.78
2023-12-12T03:04:55.157Z,100676.03
2023-12-12T03:07:21.762Z,100671.72
2023-12-12T03:09:50.599Z,100668.16
2023-12-12T03:12:17.523Z,100663.06
2023-12-12T03:14:44.102Z,100658.38
2023-12-12T03:17:10.721Z,100663.47
2023-12-12T03:19:37.415Z,100647.41
2023-12-12T03:22:04.254Z,100652.50
2023-12-12T03:24:30.792Z,100652.91
2023-12-12T03:26:57.287Z,100652.91
2023-12-12T03:29:23.749Z,100656.84
2023-12-12T03:31:50.275Z,100645.84
2023-12-12T03:34:17.032Z,100647.44
2023-12-12T03:36:44.703Z,100644.28
2023-12-12T03:39:11.696Z,100643.50
2023-12-12T03:41:39.197Z,100643.91
2023-12-12T03:44:05.728Z,100638.03
2023-12-12T03:46:32.286Z,100645.84
2023-12-12T03:48:59.007Z,100644.31
2023-12-12T03:51:25.876Z,100634.50
2023-12-12T03:53:52.357Z,100634.50
2023-12-12T03:56:18.901Z,100632.16
2023-12-12T03:58:46.289Z,100629.78
2023-12-12T04:01:13.009Z,100630.19
2023-12-12T04:03:40.621Z,100629.41
2023-12-12T04:06:08.051Z,100636.88
2023-12-12T04:08:34.582Z,100638.84
2023-12-12T04:11:01.065Z,100633.75
2023-12-12T04:13:27.603Z,100631.78
2023-12-12T04:15:54.195Z,100625.94
2023-12-12T04:18:20.784Z,100622.38
2023-12-12T04:20:47.349Z,100629.84
2023-12-12T04:23:13.909Z,100615.31
2023-12-12T04:25:40.449Z,100620.03
2023-12-12T04:28:08.486Z,100610.66
2023-12-12T04:30:35.081Z,100610.25
2023-12-12T04:33:01.634Z,100610.66
2023-12-12T04:35:28.244Z,100617.31
2023-12-12T04:37:54.716Z,100611.84
2023-12-12T04:40:21.524Z,100603.22
2023-12-12T04:42:48.061Z,100605.56
2023-12-12T04:45:14.686Z,100605.97
2023-12-12T04:47:41.298Z,100600.47
2023-12-12T04:50:08.697Z,100604.41
2023-12-12T04:52:35.333Z,100600.88
2023-12-12T04:55:01.940Z,100600.88
2023-12-12T04:57:28.564Z,100584.00
2023-12-12T04:59:55.060Z,100590.28
2023-12-12T05:02:21.935Z,100581.25
2023-12-12T05:04:48.429Z,100585.97
2023-12-12T05:07:16.821Z,100578.53
2023-12-12T05:09:43.591Z,100580.13
2023-12-12T05:12:10.072Z,100573.44
2023-12-12T05:14:36.523Z,100556.19
2023-12-12T05:17:10.182Z,100562.88
2023-12-12T05:19:37.686Z,100559.34
2023-12-12T05:22:04.617Z,100560.53
2023-12-12T05:24:31.343Z,100558.97
2023-12-12T05:26:57.847Z,100549.94
2023-12-12T05:29:24.379Z,100560.16
2023-12-12T05:31:50.966Z,100551.53
2023-12-12T05:34:17.640Z,100560.53
2023-12-12T05:36:44.198Z,100557.78
2023-12-12T05:39:11.226Z,100562.50
2023-12-12T05:41:38.091Z,100559.75
2023-12-12T05:44:06.550Z,100561.72
2023-12-12T05:46:33.231Z,100558.59
2023-12-12T05:49:00.805Z,100548.41
2023-12-12T05:51:27.777Z,100543.31
2023-12-12T05:53:55.393Z,100546.06
2023-12-12T05:56:22.108Z,100558.59
2023-12-12T05:58:48.698Z,100563.31
2023-12-12T06:01:18.709Z,100564.50
2023-12-12T06:03:46.041Z,100559.44
2023-12-12T06:06:12.801Z,100561.38
2023-12-12T06:08:39.348Z,100559.03
2023-12-12T06:11:07.454Z,100553.94
2023-12-12T06:13:34.416Z,100553.53
2023-12-12T06:16:01.003Z,100557.09
2023-12-12T06:18:27.673Z,100555.91
2023-12-12T06:20:54.426Z,100553.53
2023-12-12T06:23:20.886Z,100545.28
2023-12-12T06:25:48.214Z,100548.03
2023-12-12T06:28:14.796Z,100540.22
2023-12-12T06:30:41.417Z,100535.91
2023-12-12T06:33:08.105Z,100541.34
2023-12-12T06:35:35.266Z,100537.84
2023-12-12T06:38:05.116Z,100533.91
2023-12-12T06:40:31.801Z,100535.06
2023-12-12T06:42:58.450Z,100521.31
2023-12-12T06:45:24.954Z,100514.59
2023-12-12T06:47:51.554Z,100521.63
2023-12-12T06:50:18.462Z,100514.13
2023-12-12T06:52:45.114Z,100514.47
2023-12-12T06:55:11.658Z,100512.06
2023-12-12T06:57:39.088Z,100510.06
2023-12-12T07:00:08.161Z,100511.97
2023-12-12T07:02:34.913Z,100502.09
2023-12-12T07:05:01.926Z,100512.25
2023-12-12T07:07:28.676Z,100506.75
2023-12-12T07:09:59.536Z,100508.19
2023-12-12T07:15:12.850Z,100507.69
2023-12-12T07:17:39.711Z,100509.59
2023-12-12T07:20:06.992Z,100504.03
2023-12-12T07:22:33.682Z,100502.75
2023-12-12T07:25:01.209Z,100491.28
2023-12-12T07:27:27.850Z,100487.69
2023-12-12T07:29:54.370Z,100490.41
2023-12-12T07:32:20.985Z,100489.94
2023-12-12T07:34:47.634Z,100489.47
2023-12-12T07:37:14.229Z,100481.16
2023-12-12T07:39:40.775Z,100481.91
2023-12-12T07:42:07.294Z,100470.06
2023-12-12T07:44:33.855Z,100468.03
2023-12-12T07:47:03.186Z,100465.22
2023-12-12T07:49:30.616Z,100460.47
2023-12-12T07:51:57.687Z,100454.88
2023-12-12T07:54:24.389Z,100450.59
2023-12-12T07:56:50.873Z,100452.13
2023-12-12T07:59:18.768Z,100446.63
2023-12-12T08:01:46.661Z,100443.09
2023-12-12T08:04:13.545Z,100441.19
2023-12-12T08:06:40.207Z,100448.69
2023-12-12T08:09:08.341Z,100440.81
2023-12-12T08:11:34.855Z,100437.28
2023-12-12T08:14:01.828Z,100442.00
2023-12-12T08:16:28.661Z,100434.94
2023-12-12T08:18:55.330Z,100436.16
2023-12-12T08:21:21.876Z,100434.94
2023-12-12T08:23:49.849Z,100428.72
2023-12-12T08:26:16.701Z,100425.56
2023-12-12T08:28:43.284Z,100423.97
2023-12-12T08:31:10.566Z,100418.91
2023-12-12T08:33:37.301Z,100406.72
2023-12-12T08:36:05.058Z,100411.47
2023-12-12T08:38:31.708Z,100405.19
2023-12-12T08:40:58.190Z,100411.88
2023-12-12T08:43:25.332Z,100402.50
2023-12-12T08:45:53.886Z,100407.22
2023-12-12T08:48:20.776Z,100398.63
2023-12-12T08:50:49.682Z,100397.84
2023-12-12T08:53:16.967Z,100402.94
2023-12-12T08:55:43.821Z,100399.44
2023-12-12T08:58:12.148Z,100393.56
2023-12-12T09:00:39.961Z,100397.53
2023-12-12T09:03:06.595Z,100392.03
2023-12-12T09:05:33.164Z,100394.00
2023-12-12T09:08:00.066Z,100384.19
2023-12-12T09:10:26.834Z,100377.13
2023-12-12T09:12:53.498Z,100375.16
2023-12-12T09:15:20.629Z,100372.81
2023-12-12T09:18:00.443Z,100376.34
2023-12-12T09:20:33.980Z,100374.78
2023-12-12T09:23:00.796Z,100368.50
2023-12-12T09:25:27.508Z,100368.50
2023-12-12T09:27:54.166Z,100355.94
2023-12-12T09:30:22.330Z,100356.72
2023-12-12T09:32:49.253Z,100351.22
2023-12-12T09:35:17.340Z,100348.88
2023-12-12T09:37:43.976Z,100345.78
2023-12-12T09:40:13.611Z,100346.56
2023-12-12T09:42:41.385Z,100334.44
2023-12-12T09:45:15.993Z,100336.41
2023-12-12T09:47:43.871Z,100335.63
2023-12-12T09:50:11.675Z,100333.66
2023-12-12T09:52:38.620Z,100328.53
2023-12-12T09:55:06.758Z,100319.94
2023-12-12T09:57:34.406Z,100309.38
2023-12-12T10:00:01.663Z,100303.88
2023-12-12T10:02:34.610Z,100298.44
2023-12-12T10:05:04.251Z,100292.94
2023-12-12T10:07:32.042Z,100283.47
2023-12-12T10:10:00.183Z,100289.75
2023-12-12T10:12:29.191Z,100279.97
2023-12-12T10:14:57.128Z,100280.38
2023-12-12T10:17:26.301Z,100275.69
2023-12-12T10:20:05.287Z,100270.97
2023-12-12T10:22:33.046Z,100264.28
2023-12-12T10:25:15.978Z,100267.03
2023-12-12T10:27:43.973Z,100263.50
2023-12-12T10:30:14.572Z,100250.19
2023-12-12T10:32:41.758Z,100251.72
2023-12-12T10:35:08.906Z,100246.66
2023-12-12T10:37:35.792Z,100241.94
2023-12-12T10:40:12.912Z,100238.41
2023-12-12T10:42:41.273Z,100235.66
2023-12-12T10:45:14.027Z,100225.09
2023-12-12T10:47:42.816Z,100231.78
2023-12-12T10:50:16.594Z,100222.75
2023-12-12T10:52:45.391Z,100227.06
2023-12-12T10:55:14.117Z,100217.25
2023-12-12T10:57:43.776Z,100209.00
2023-12-12T11:00:18.177Z,100201.97
2023-12-12T11:02:47.234Z,100207.47
2023-12-12T11:05:15.994Z,100193.72
2023-12-12T11:07:47.672Z,100183.13
2023-12-12T11:10:16.081Z,100182.34
2023-12-12T11:12:56.352Z,100174.09
2023-12-12T11:15:24.872Z,100163.09
2023-12-12T11:17:52.900Z,100161.91
2023-12-12T11:20:20.942Z,100155.63
2023-12-12T11:22:49.755Z,100157.59
2023-12-12T11:25:22.469Z,100163.53
2023-12-12T11:27:51.962Z,100154.91
2023-12-12T11:30:20.251Z,100149.06
2023-12-12T11:32:48.815Z,100141.59
2023-12-12T11:35:33.838Z,100138.13
2023-12-12T11:38:04.362Z,100132.63
2023-12-12T11:40:32.178Z,100126.00
2023-12-12T11:43:21.866Z,100131.16
2023-12-12T11:45:48.745Z,100123.69
2023-12-12T11:48:16.347Z,100106.06
2023-12-12T11:50:43.069Z,100110.78
2023-12-12T11:53:10.002Z,100094.69
2023-12-12T11:55:43.696Z,100097.44
2023-12-12T11:58:10.699Z,100086.88
2023-12-12T12:00:39.230Z,100079.41
2023-12-12T12:03:06.934Z,100079.81
2023-12-12T12:05:33.696Z,100073.56
2023-12-12T12:08:02.196Z,100072.34
2023-12-12T12:10:29.197Z,100072.78
2023-12-12T12:12:57.226Z,100070.03
2023-12-12T12:15:24.996Z,100064.97
2023-12-12T12:17:52.167Z,100052.41
2023-12-12T12:20:19.099Z,100047.69
2023-12-12T12:22:45.964Z,100041.84
2023-12-12T12:25:13.953Z,100039.09
2023-12-12T12:27:52.159Z,100034.00
2023-12-12T12:30:19.670Z,100029.72
2023-12-12T12:33:08.404Z,100028.94
2023-12-12T12:35:35.002Z,100022.31
2023-12-12T12:38:01.638Z,100019.56
2023-12-12T12:40:46.515Z,100019.22
2023-12-12T12:43:18.457Z,100012.97
2023-12-12T12:45:48.696Z,100013.72
2023-12-12T12:48:19.137Z,100010.25
2023-12-12T12:50:49.317Z,100007.84
2023-12-12T12:53:15.926Z,99992.22
2023-12-12T12:55:44.395Z,99993.00
2023-12-12T12:58:12.470Z,99991.44
2023-12-12T13:00:40.375Z,99984.41
2023-12-12T13:03:08.384Z,99977.72
2023-12-12T13:05:34.948Z,99972.66
2023-12-12T13:08:01.431Z,99982.44
2023-12-12T13:10:39.552Z,99971.88
2023-12-12T13:13:14.024Z,99969.91
2023-12-12T13:15:41.114Z,99970.31
2023-12-12T13:18:07.812Z,99968.75
2023-12-12T13:20:34.334Z,99964.06
2023-12-12T13:23:01.080Z,99951.09
2023-12-12T13:25:27.694Z,99942.44
2023-12-12T13:27:54.324Z,99927.53
2023-12-12T13:30:22.017Z,99909.50
2023-12-12T13:32:48.805Z,99901.25
2023-12-12T13:35:26.963Z,99907.50
2023-12-12T13:38:01.800Z,99913.00
2023-12-12T13:40:28.546Z,99914.53
2023-12-12T13:42:55.286Z,99912.97
2023-12-12T13:45:21.854Z,99905.84
2023-12-12T13:47:48.578Z,99919.94
2023-12-12T13:50:15.445Z,99921.50
2023-12-12T13:52:42.190Z,99914.81
2023-12-12T13:55:09.043Z,99914.81
2023-12-12T13:57:35.689Z,99914.06
2023-12-12T14:00:03.107Z,99913.69
2023-12-12T14:02:33.464Z,99914.06
2023-12-12T14:05:03.627Z,99920.31
2023-12-12T14:07:31.126Z,99915.16
2023-12-12T14:09:57.934Z,99898.34
2023-12-12T14:12:24.444Z,99899.03
2023-12-12T14:14:50.957Z,99904.09
2023-12-12T14:17:17.659Z,99901.72
2023-12-12T14:19:44.463Z,99887.97
2023-12-12T14:22:13.878Z,99881.63
2023-12-12T14:24:41.661Z,99879.66
2023-12-12T14:27:08.462Z,99872.94
2023-12-12T14:29:35.452Z,99870.97
2023-12-12T14:32:02.374Z,99863.84
2023-12-12T14:34:29.072Z,99860.63
2023-12-12T14:36:55.631Z,99859.75
2023-12-12T14:39:22.188Z,99856.50
2023-12-12T14:41:48.761Z,99860.72
2023-12-12T14:44:15.387Z,99857.03
2023-12-12T14:46:42.115Z,99850.19
2023-12-12T14:49:08.949Z,99846.41
2023-12-12T14:51:35.533Z,99840.31
2023-12-12T14:54:04.743Z,99838.94
2023-12-12T14:56:33.028Z,99835.16
2023-12-12T14:58:59.829Z,99845.50
2023-12-12T15:01:26.458Z,99838.94
2023-12-12T15:03:53.271Z,99838.78
2023-12-12T15:06:20.692Z,99832.53
2023-12-12T15:08:47.274Z,99821.00
2023-12-12T15:11:13.901Z,99823.56
2023-12-12T15:13:41.018Z,99824.13
2023-12-12T15:16:11.243Z,99820.75
2023-12-12T15:18:38.977Z,99812.72
2023-12-12T15:21:07.032Z,99812.63
2023-12-12T15:23:34.144Z,99813.75
2023-12-12T15:26:00.735Z,99812.94
2023-12-12T15:28:28.296Z,99807.03
2023-12-12T15:30:57.245Z,99801.88
2023-12-12T15:33:25.037Z,99797.78
2023-12-12T15:35:51.890Z,99793.28
2023-12-12T15:38:18.498Z,99786.91
2023-12-12T15:40:45.237Z,99787.13
2023-12-12T15:43:12.693Z,99780.72
2023-12-12T15:45:39.668Z,99775.91
2023-12-12T15:48:06.692Z,99773.78
2023-12-12T15:50:33.501Z,99772.16
2023-12-12T15:53:00.007Z,99778.78
2023-12-12T15:55:26.542Z,99770.81
2023-12-12T15:57:53.045Z,99766.84
2023-12-12T16:00:19.936Z,99767.97
2023-12-12T16:02:46.490Z,99762.78
2023-12-12T16:05:13.585Z,99749.00
2023-12-12T16:07:40.486Z,99754.06
2023-12-12T16:10:11.339Z,99757.94
2023-12-12T16:12:38.640Z,99750.44
2023-12-12T16:15:06.528Z,99749.22
2023-12-12T16:17:34.209Z,99749.97
2023-12-12T16:20:05.103Z,99740.06
2023-12-12T16:22:33.711Z,99744.03
2023-12-12T16:25:00.501Z,99737.31
2023-12-12T16:27:27.085Z,99734.56
2023-12-12T16:29:53.788Z,99736.53
2023-12-12T16:32:20.373Z,99738.63
2023-12-12T16:34:48.131Z,99739.84
2023-12-12T16:37:15.240Z,99729.25
2023-12-12T16:39:43.201Z,99723.44
2023-12-12T16:42:15.410Z,99725.41
2023-12-12T16:44:43.147Z,99714.84
2023-12-12T16:47:11.075Z,99715.59
2023-12-12T16:49:38.255Z,99721.88
2023-12-12T16:52:05.141Z,99713.63
2023-12-12T16:54:34.548Z,99714.38
2023-12-12T16:57:01.462Z,99715.59
2023-12-12T16:59:28.124Z,99705.00
2023-12-12T17:01:57.659Z,99702.69
2023-12-12T17:04:29.977Z,99704.69
2023-12-12T17:06:56.888Z,99706.34
2023-12-12T17:09:23.697Z,99694.53
2023-12-12T17:11:50.292Z,99699.28
2023-12-12T17:14:17.294Z,99687.94
2023-12-12T17:16:44.982Z,99693.78
2023-12-12T17:19:12.251Z,99685.97
2023-12-12T17:21:39.260Z,99688.72
2023-12-12T17:24:06.268Z,99687.94
2023-12-12T17:26:32.830Z,99692.66
2023-12-12T17:28:59.360Z,99693.09
2023-12-12T17:31:26.336Z,99695.84
2023-12-12T17:33:53.230Z,99692.34
2023-12-12T17:36:19.891Z,99699.06
2023-12-12T17:38:47.036Z,99697.97
2023-12-12T17:41:17.189Z,99695.97
2023-12-12T17:43:45.233Z,99699.19
2023-12-12T17:46:12.260Z,99690.16
2023-12-12T17:48:40.655Z,99692.56
2023-12-12T17:51:07.477Z,99687.81
2023-12-12T17:53:35.407Z,99684.28
2023-12-12T17:56:02.542Z,99678.78
2023-12-12T17:58:29.747Z,99681.53
2023-12-12T18:00:56.660Z,99683.97
2023-12-12T18:03:23.749Z,99676.47
2023-12-12T18:05:52.339Z,99669.41
2023-12-12T18:08:19.343Z,99663.91
2023-12-12T18:10:46.063Z,99662.03
2023-12-12T18:13:12.855Z,99659.28
2023-12-12T18:15:39.338Z,99653.78
2023-12-12T18:18:10.852Z,99657.75
2023-12-12T18:20:38.304Z,99651.88
2023-12-12T18:23:05.429Z,99656.63
2023-12-12T18:25:32.204Z,99655.09
2023-12-12T18:28:03.130Z,99646.81
2023-12-12T18:30:30.697Z,99649.25
2023-12-12T18:32:59.273Z,99649.25
2023-12-12T18:35:26.095Z,99643.44
2023-12-12T18:37:52.698Z,99641.53
2023-12-12T18:40:19.356Z,99640.00
2023-12-12T18:42:46.047Z,99637.25
2023-12-12T18:45:12.905Z,99634.94
2023-12-12T18:47:39.921Z,99632.19
2023-12-12T18:50:07.918Z,99626.34
2023-12-12T18:52:34.517Z,99624.34
2023-12-12T18:55:01.324Z,99627.56
2023-12-12T18:57:28.594Z,99614.19
2023-12-12T18:59:55.170Z,99608.69
2023-12-12T19:02:22.803Z,99612.66
2023-12-12T19:04:49.598Z,99601.28
2023-12-12T19:07:16.751Z,99601.75
2023-12-12T19:09:43.629Z,99608.47
2023-12-12T19:12:10.423Z,99600.66
2023-12-12T19:14:36.958Z,99600.66
2023-12-12T19:17:03.807Z,99603.41
2023-12-12T19:19:33.221Z,99598.78
2023-12-12T19:22:01.224Z,99597.56
2023-12-12T19:24:28.817Z,99591.28
2023-12-12T19:26:55.415Z,99598.00
2023-12-12T19:29:23.219Z,99585.44
2023-12-12T19:31:49.953Z,99585.13
2023-12-12T19:34:16.666Z,99582.38
2023-12-12T19:36:47.988Z,99583.56
2023-12-12T19:39:15.606Z,99577.28
2023-12-12T19:41:44.828Z,99580.50
2023-12-12T19:44:12.380Z,99584.78
2023-12-12T19:46:38.940Z,99573.47
2023-12-12T19:49:05.785Z,99574.66
2023-12-12T19:51:32.437Z,99580.19
2023-12-12T19:53:59.455Z,99584.88
2023-12-12T19:56:25.934Z,99584.56
2023-12-12T19:58:52.604Z,99593.16
2023-12-12T20:01:19.785Z,99588.09
2023-12-12T20:03:47.297Z,99588.53
2023-12-12T20:06:14.186Z,99585.44
2023-12-12T20:08:40.712Z,99583.16
2023-12-12T20:11:07.646Z,99600.53
2023-12-12T20:13:34.600Z,99606.03
2023-12-12T20:16:01.591Z,99607.69
2023-12-12T20:18:30.947Z,99615.19
2023-12-12T20:20:57.835Z,99611.66
2023-12-12T20:23:24.485Z,99601.53
2023-12-12T20:25:51.227Z,99599.19
2023-12-12T20:28:18.242Z,99604.28
2023-12-12T20:30:44.962Z,99603.16
2023-12-12T20:35:38.050Z,99603.63
2023-12-12T20:38:05.462Z,99591.50
2023-12-12T20:40:32.147Z,99600.53
2023-12-12T20:42:59.156Z,99595.03
2023-12-12T20:45:26.013Z,99586.44
2023-12-12T20:47:52.690Z,99584.91
2023-12-12T20:50:19.741Z,99582.56
2023-12-12T20:52:46.602Z,99590.06
2023-12-12T20:55:13.411Z,99583.00
2023-12-12T20:57:40.101Z,99590.50
2023-12-12T21:00:07.451Z,99579.16
2023-12-12T21:02:34.091Z,99575.66
2023-12-12T21:05:00.752Z,99579.63
2023-12-12T21:07:27.516Z,99580.81
2023-12-12T21:09:54.566Z,99576.09
2023-12-12T21:12:22.306Z,99584.78
2023-12-12T21:14:48.935Z,99586.34
2023-12-12T21:17:15.469Z,99584.78
2023-12-12T21:19:43.559Z,99579.69
2023-12-12T21:22:10.265Z,99587.97
2023-12-12T21:24:36.930Z,99584.44
2023-12-12T21:27:04.734Z,99582.91
2023-12-12T21:29:33.052Z,99585.66
2023-12-12T21:31:59.598Z,99589.94
2023-12-12T21:34:26.441Z,99586.41
2023-12-12T21:36:52.974Z,99580.59
2023-12-12T21:39:20.018Z,99584.56
2023-12-12T21:41:46.550Z,99579.94
2023-12-12T21:44:13.526Z,99581.91
2023-12-12T21:46:41.142Z,99574.84
2023-12-12T21:49:08.365Z,99587.50
2023-12-12T21:51:35.032Z,99583.53
2023-12-12T21:54:01.877Z,99577.72
2023-12-12T21:56:28.821Z,99580.91
2023-12-12T21:58:58.013Z,99575.09
2023-12-12T22:01:25.206Z,99590.38
2023-12-12T22:03:51.896Z,99586.50
2023-12-12T22:06:18.406Z,99589.25
2023-12-12T22:08:44.897Z,99580.66
2023-12-12T22:11:17.034Z,99582.66
2023-12-12T22:13:44.418Z,99586.63
2023-12-12T22:16:20.209Z,99589.38
2023-12-12T22:18:46.790Z,99585.84
2023-12-12T22:21:13.412Z,99581.22
2023-12-12T22:23:39.879Z,99574.97
2023-12-12T22:26:06.534Z,99571.84
2023-12-12T22:28:33.126Z,99580.09
2023-12-12T22:31:00.877Z,99572.28
2023-12-12T22:33:27.460Z,99581.31
2023-12-12T22:35:53.995Z,99575.47
2023-12-12T22:38:20.447Z,99577.47
2023-12-12T22:40:47.059Z,99576.66
2023-12-12T22:43:13.884Z,99580.31
2023-12-12T22:45:40.432Z,99577.88
2023-12-12T22:48:07.273Z,99582.59
2023-12-12T22:50:37.934Z,99588.97
2023-12-12T22:53:05.698Z,99581.91
2023-12-12T22:55:32.185Z,99575.66
2023-12-12T22:57:58.739Z,99577.19
2023-12-12T23:00:32.903Z,99579.63
2023-12-12T23:03:00.333Z,99574.56
2023-12-12T23:05:26.967Z,99576.53
2023-12-12T23:07:54.406Z,99585.22
2023-12-12T23:10:21.776Z,99575.75
2023-12-12T23:12:48.768Z,99578.19
2023-12-12T23:15:15.814Z,99577.38
2023-12-12T23:17:42.404Z,99580.13
2023-12-12T23:20:09.583Z,99576.63
2023-12-12T23:22:36.382Z,99570.34
2023-12-12T23:25:03.019Z,99572.00
2023-12-12T23:27:31.278Z,99570.03
2023-12-12T23:29:58.025Z,99574.75
2023-12-12T23:32:24.504Z,99559.47
2023-12-12T23:34:51.255Z,99564.63
2023-12-12T23:37:20.652Z,99552.88
2023-12-12T23:39:47.487Z,99551.31
2023-12-12T23:42:13.981Z,99546.59
2023-12-12T23:44:40.479Z,99545.47
2023-12-12T23:47:06.949Z,99542.31
2023-12-12T23:49:33.466Z,99544.69
2023-12-12T23:52:00.027Z,99538.00
2023-12-12T23:54:26.515Z,99535.69
2023-12-12T23:56:53.003Z,99524.69
2023-12-12T23:59:19.926Z,99525.13
